sensor_id;sensor_type;location;lat;lon;timestamp;pressure;altitude;pressure_sealevel;temperature;humidity
12594;BME280;6362;50.208;9.182;2023-07-30T00:01:35;99255.97;;;16.77;100.00
12594;BME280;6362;50.208;9.182;2023-07-30T00:04:01;99250.75;;;16.75;100.00
12594;BME280;6362;50.208;9.182;2023-07-30T00:06:26;99244.53;;;16.78;100.00
12594;BME280;6362;50.208;9.182;2023-07-30T00:08:52;99241.84;;;16.79;100.00
12594;BME280;6362;50.208;9.182;2023-07-30T00:11:17;99239.00;;;16.84;100.00
12594;BME280;6362;50.208;9.182;2023-07-30T00:13:42;99254.63;;;16.87;100.00
12594;BME280;6362;50.208;9.182;2023-07-30T00:16:08;99252.72;;;16.91;100.00
12594;BME280;6362;50.208;9.182;2023-07-30T00:18:33;99250.19;;;16.89;100.00
12594;BME280;6362;50.208;9.182;2023-07-30T00:20:59;99250.19;;;16.89;100.00
12594;BME280;6362;50.208;9.182;2023-07-30T00:23:24;99251.88;;;16.90;100.00
12594;BME280;6362;50.208;9.182;2023-07-30T00:25:50;99250.94;;;16.91;100.00
12594;BME280;6362;50.208;9.182;2023-07-30T00:28:15;99256.13;;;16.93;100.00
12594;BME280;6362;50.208;9.182;2023-07-30T00:30:41;99251.88;;;16.90;100.00
12594;BME280;6362;50.208;9.182;2023-07-30T00:33:06;99246.63;;;16.90;100.00
12594;BME280;6362;50.208;9.182;2023-07-30T00:35:32;99241.22;;;16.93;100.00
12594;BME280;6362;50.208;9.182;2023-07-30T00:37:57;99246.63;;;16.90;100.00
12594;BME280;6362;50.208;9.182;2023-07-30T00:40:22;99243.25;;;16.86;100.00
12594;BME280;6362;50.208;9.182;2023-07-30T00:42:48;99261.72;;;16.85;100.00
12594;BME280;6362;50.208;9.182;2023-07-30T00:45:13;99250.38;;;16.84;100.00
12594;BME280;6362;50.208;9.182;2023-07-30T00:47:39;99258.09;;;16.87;100.00
12594;BME280;6362;50.208;9.182;2023-07-30T00:50:07;99257.31;;;16.85;100.00
12594;BME280;6362;50.208;9.182;2023-07-30T00:52:33;99266.84;;;16.88;100.00
12594;BME280;6362;50.208;9.182;2023-07-30T00:55:01;99269.22;;;16.94;100.00
12594;BME280;6362;50.208;9.182;2023-07-30T00:57:28;99267.16;;;17.01;100.00
12594;BME280;6362;50.208;9.182;2023-07-30T00:59:54;99264.63;;;16.99;100.00
12594;BME280;6362;50.208;9.182;2023-07-30T01:02:21;99260.13;;;17.01;100.00
12594;BME280;6362;50.208;9.182;2023-07-30T01:04:47;99256.56;;;17.02;100.00
12594;BME280;6362;50.208;9.182;2023-07-30T01:07:12;99262.69;;;17.03;100.00
12594;BME280;6362;50.208;9.182;2023-07-30T01:09:38;99268.94;;;17.00;100.00
12594;BME280;6362;50.208;9.182;2023-07-30T01:12:05;99273.38;;;16.98;100.00
12594;BME280;6362;50.208;9.182;2023-07-30T01:14:31;99278.66;;;16.98;100.00
12594;BME280;6362;50.208;9.182;2023-07-30T01:16:57;99284.69;;;17.00;100.00
12594;BME280;6362;50.208;9.182;2023-07-30T01:19:22;99287.31;;;17.00;100.00
12594;BME280;6362;50.208;9.182;2023-07-30T01:21:48;99297.84;;;17.00;100.00
12594;BME280;6362;50.208;9.182;2023-07-30T01:24:13;99290.88;;;16.99;100.00
12594;BME280;6362;50.208;9.182;2023-07-30T01:29:15;99306.50;;;17.02;100.00
12594;BME280;6362;50.208;9.182;2023-07-30T01:31:43;99304.78;;;17.01;100.00
12594;BME280;6362;50.208;9.182;2023-07-30T01:34:09;99310.13;;;17.00;100.00
12594;BME280;6362;50.208;9.182;2023-07-30T01:36:37;99309.03;;;17.04;100.00
12594;BME280;6362;50.208;9.182;2023-07-30T01:39:04;99306.41;;;17.04;100.00
12594;BME280;6362;50.208;9.182;2023-07-30T01:41:30;99297.69;;;17.03;100.00
12594;BME280;6362;50.208;9.182;2023-07-30T01:43:55;99308.91;;;17.07;100.00
12594;BME280;6362;50.208;9.182;2023-07-30T01:46:21;99301.97;;;17.06;100.00
12594;BME280;6362;50.208;9.182;2023-07-30T01:48:46;99311.63;;;17.05;100.00
12594;BME280;6362;50.208;9.182;2023-07-30T01:51:12;99316.88;;;17.05;100.00
12594;BME280;6362;50.208;9.182;2023-07-30T01:53:37;99316.88;;;17.05;100.00
12594;BME280;6362;50.208;9.182;2023-07-30T01:56:02;99320.34;;;17.06;100.00
12594;BME280;6362;50.208;9.182;2023-07-30T01:58:28;99324.81;;;17.04;100.00
12594;BME280;6362;50.208;9.182;2023-07-30T02:00:53;99318.69;;;17.03;100.00
12594;BME280;6362;50.208;9.182;2023-07-30T02:03:19;99320.56;;;17.01;100.00
12594;BME280;6362;50.208;9.182;2023-07-30T02:05:44;99322.44;;;16.98;100.00
12594;BME280;6362;50.208;9.182;2023-07-30T02:08:09;99324.22;;;16.97;100.00
12594;BME280;6362;50.208;9.182;2023-07-30T02:10:35;99324.22;;;16.97;100.00
12594;BME280;6362;50.208;9.182;2023-07-30T02:13:00;99322.44;;;16.98;100.00
12594;BME280;6362;50.208;9.182;2023-07-30T02:15:26;99326.84;;;16.97;100.00
12594;BME280;6362;50.208;9.182;2023-07-30T02:17:51;99322.44;;;16.98;100.00
12594;BME280;6362;50.208;9.182;2023-07-30T02:20:16;99333.88;;;16.97;100.00
12594;BME280;6362;50.208;9.182;2023-07-30T02:22:42;99327.66;;;16.99;100.00
12594;BME280;6362;50.208;9.182;2023-07-30T02:25:07;99326.00;;;16.97;100.00
12594;BME280;6362;50.208;9.182;2023-07-30T02:27:33;99331.34;;;16.95;100.00
12594;BME280;6362;50.208;9.182;2023-07-30T02:29:58;99333.97;;;16.95;100.00
12594;BME280;6362;50.208;9.182;2023-07-30T02:32:24;99333.97;;;16.95;100.00
12594;BME280;6362;50.208;9.182;2023-07-30T02:34:49;99334.94;;;16.93;100.00
12594;BME280;6362;50.208;9.182;2023-07-30T02:37:14;99338.41;;;16.93;100.00
12594;BME280;6362;50.208;9.182;2023-07-30T02:39:40;99341.03;;;16.93;100.00
12594;BME280;6362;50.208;9.182;2023-07-30T02:42:06;99346.28;;;16.93;100.00
12594;BME280;6362;50.208;9.182;2023-07-30T02:44:31;99347.28;;;16.91;100.00
12594;BME280;6362;50.208;9.182;2023-07-30T02:46:57;99346.50;;;16.88;100.00
12594;BME280;6362;50.208;9.182;2023-07-30T02:49:22;99354.38;;;16.88;100.00
12594;BME280;6362;50.208;9.182;2023-07-30T02:51:47;99354.31;;;16.90;100.00
12594;BME280;6362;50.208;9.182;2023-07-30T02:54:14;99359.56;;;16.90;100.00
12594;BME280;6362;50.208;9.182;2023-07-30T02:56:41;99356.16;;;16.88;100.00
12594;BME280;6362;50.208;9.182;2023-07-30T02:59:07;99365.84;;;16.86;100.00
12594;BME280;6362;50.208;9.182;2023-07-30T03:01:32;99367.63;;;16.85;100.00
12594;BME280;6362;50.208;9.182;2023-07-30T03:03:57;99366.78;;;16.85;100.00
12594;BME280;6362;50.208;9.182;2023-07-30T03:06:23;99364.94;;;16.87;100.00
12594;BME280;6362;50.208;9.182;2023-07-30T03:08:48;99363.16;;;16.87;100.00
12594;BME280;6362;50.208;9.182;2023-07-30T03:11:14;99366.78;;;16.85;100.00
12594;BME280;6362;50.208;9.182;2023-07-30T03:13:39;99370.25;;;16.85;100.00
12594;BME280;6362;50.208;9.182;2023-07-30T03:16:04;99375.59;;;16.84;100.00
12594;BME280;6362;50.208;9.182;2023-07-30T03:18:30;99383.53;;;16.82;100.00
12594;BME280;6362;50.208;9.182;2023-07-30T03:21:01;99379.91;;;16.85;100.00
12594;BME280;6362;50.208;9.182;2023-07-30T03:23:27;99386.09;;;16.84;100.00
12594;BME280;6362;50.208;9.182;2023-07-30T03:25:53;99399.22;;;16.84;100.00
12594;BME280;6362;50.208;9.182;2023-07-30T03:28:18;99402.78;;;16.83;100.00
12594;BME280;6362;50.208;9.182;2023-07-30T03:30:44;99403.63;;;16.83;100.00
12594;BME280;6362;50.208;9.182;2023-07-30T03:33:09;99411.25;;;16.89;100.00
12594;BME280;6362;50.208;9.182;2023-07-30T03:35:34;99398.03;;;16.91;100.00
12594;BME280;6362;50.208;9.182;2023-07-30T03:38:00;99395.56;;;16.88;100.00
12594;BME280;6362;50.208;9.182;2023-07-30T03:40:25;99398.13;;;16.89;100.00
12594;BME280;6362;50.208;9.182;2023-07-30T03:42:51;99398.97;;;16.90;100.00
12594;BME280;6362;50.208;9.182;2023-07-30T03:45:16;99394.50;;;16.92;100.00
12594;BME280;6362;50.208;9.182;2023-07-30T03:47:42;99399.94;;;16.87;100.00
12594;BME280;6362;50.208;9.182;2023-07-30T03:50:07;99388.56;;;16.87;100.00
12594;BME280;6362;50.208;9.182;2023-07-30T03:52:33;99389.41;;;16.87;100.00
12594;BME280;6362;50.208;9.182;2023-07-30T03:54:58;99387.69;;;16.88;100.00
12594;BME280;6362;50.208;9.182;2023-07-30T03:57:23;99385.94;;;16.87;100.00
12594;BME280;6362;50.208;9.182;2023-07-30T03:59:49;99386.88;;;16.86;100.00
12594;BME280;6362;50.208;9.182;2023-07-30T04:02:14;99384.31;;;16.84;100.00
12594;BME280;6362;50.208;9.182;2023-07-30T04:04:41;99393.16;;;16.82;100.00
12594;BME280;6362;50.208;9.182;2023-07-30T04:07:08;99401.25;;;16.77;100.00
12594;BME280;6362;50.208;9.182;2023-07-30T04:09:34;99390.88;;;16.74;100.00
12594;BME280;6362;50.208;9.182;2023-07-30T04:11:59;99398.03;;;16.69;100.00
12594;BME280;6362;50.208;9.182;2023-07-30T04:14:25;99401.59;;;16.68;100.00
12594;BME280;6362;50.208;9.182;2023-07-30T04:16:50;99402.56;;;16.66;100.00
12594;BME280;6362;50.208;9.182;2023-07-30T04:19:15;99397.31;;;16.66;100.00
12594;BME280;6362;50.208;9.182;2023-07-30T04:21:41;99385.94;;;16.65;100.00
12594;BME280;6362;50.208;9.182;2023-07-30T04:24:06;99381.69;;;16.62;100.00
12594;BME280;6362;50.208;9.182;2023-07-30T04:26:32;99386.28;;;16.57;100.00
12594;BME280;6362;50.208;9.182;2023-07-30T04:28:57;99385.50;;;16.55;100.00
12594;BME280;6362;50.208;9.182;2023-07-30T04:31:22;99391.72;;;16.53;100.00
12594;BME280;6362;50.208;9.182;2023-07-30T04:33:48;99391.00;;;16.49;100.00
12594;BME280;6362;50.208;9.182;2023-07-30T04:36:13;99409.22;;;16.52;100.00
12594;BME280;6362;50.208;9.182;2023-07-30T04:38:39;99406.53;;;16.54;100.00
12594;BME280;6362;50.208;9.182;2023-07-30T04:41:04;99405.50;;;16.58;100.00
12594;BME280;6362;50.208;9.182;2023-07-30T04:43:29;99412.34;;;16.62;100.00
12594;BME280;6362;50.208;9.182;2023-07-30T04:45:55;99417.41;;;16.67;100.00
12594;BME280;6362;50.208;9.182;2023-07-30T04:48:20;99425.94;;;16.73;100.00
12594;BME280;6362;50.208;9.182;2023-07-30T04:50:46;99416.03;;;16.80;100.00
12594;BME280;6362;50.208;9.182;2023-07-30T04:53:11;99408.81;;;16.85;100.00
12594;BME280;6362;50.208;9.182;2023-07-30T04:55:37;99409.41;;;16.92;100.00
12594;BME280;6362;50.208;9.182;2023-07-30T04:58:02;99411.84;;;16.96;100.00
12594;BME280;6362;50.208;9.182;2023-07-30T05:00:28;99408.19;;;17.00;100.00
12594;BME280;6362;50.208;9.182;2023-07-30T05:02:54;99422.00;;;17.04;100.00
12594;BME280;6362;50.208;9.182;2023-07-30T05:05:19;99426.13;;;17.11;100.00
12594;BME280;6362;50.208;9.182;2023-07-30T05:07:45;99423.16;;;17.19;100.00
12594;BME280;6362;50.208;9.182;2023-07-30T05:10:10;99409.94;;;17.20;100.00
12594;BME280;6362;50.208;9.182;2023-07-30T05:12:36;99413.97;;;17.29;100.00
12594;BME280;6362;50.208;9.182;2023-07-30T05:15:03;99417.50;;;17.28;100.00
12594;BME280;6362;50.208;9.182;2023-07-30T05:17:29;99428.59;;;17.34;100.00
12594;BME280;6362;50.208;9.182;2023-07-30T05:19:55;99427.34;;;17.43;100.00
12594;BME280;6362;50.208;9.182;2023-07-30T05:22:20;99420.31;;;17.44;100.00
12594;BME280;6362;50.208;9.182;2023-07-30T05:24:46;99420.06;;;17.50;100.00
12594;BME280;6362;50.208;9.182;2023-07-30T05:27:12;99420.72;;;17.55;100.00
12594;BME280;6362;50.208;9.182;2023-07-30T05:29:38;99420.34;;;17.62;100.00
12594;BME280;6362;50.208;9.182;2023-07-30T05:32:03;99405.22;;;17.67;100.00
12594;BME280;6362;50.208;9.182;2023-07-30T05:34:29;99408.25;;;17.79;100.00
12594;BME280;6362;50.208;9.182;2023-07-30T05:36:54;99406.44;;;18.00;100.00
12594;BME280;6362;50.208;9.182;2023-07-30T05:39:20;99409.25;;;18.14;100.00
12594;BME280;6362;50.208;9.182;2023-07-30T05:41:45;99413.47;;;18.18;100.00
12594;BME280;6362;50.208;9.182;2023-07-30T05:44:11;99421.16;;;18.23;100.00
12594;BME280;6362;50.208;9.182;2023-07-30T05:46:36;99415.28;;;18.35;100.00
12594;BME280;6362;50.208;9.182;2023-07-30T05:49:01;99415.25;;;18.54;100.00
12594;BME280;6362;50.208;9.182;2023-07-30T05:51:27;99409.34;;;18.67;96.31
12594;BME280;6362;50.208;9.182;2023-07-30T05:53:52;99420.22;;;18.79;93.82
12594;BME280;6362;50.208;9.182;2023-07-30T05:56:18;99422.41;;;18.88;91.30
12594;BME280;6362;50.208;9.182;2023-07-30T05:58:44;99417.66;;;18.77;91.12
12594;BME280;6362;50.208;9.182;2023-07-30T06:01:09;99424.25;;;18.86;93.15
12594;BME280;6362;50.208;9.182;2023-07-30T06:03:37;99422.22;;;18.73;94.60
12594;BME280;6362;50.208;9.182;2023-07-30T06:06:02;99422.63;;;18.83;95.29
12594;BME280;6362;50.208;9.182;2023-07-30T06:08:28;99424.56;;;18.97;95.29
12594;BME280;6362;50.208;9.182;2023-07-30T06:10:55;99420.94;;;19.17;93.57
12594;BME280;6362;50.208;9.182;2023-07-30T06:13:20;99412.91;;;19.36;92.08
12594;BME280;6362;50.208;9.182;2023-07-30T06:15:46;99415.28;;;19.58;91.38
12594;BME280;6362;50.208;9.182;2023-07-30T06:18:11;99410.00;;;19.75;87.95
12594;BME280;6362;50.208;9.182;2023-07-30T06:20:37;99412.41;;;19.80;88.04
12594;BME280;6362;50.208;9.182;2023-07-30T06:23:02;99417.25;;;19.87;87.86
12594;BME280;6362;50.208;9.182;2023-07-30T06:25:29;99421.91;;;19.99;85.26
12594;BME280;6362;50.208;9.182;2023-07-30T06:27:55;99410.16;;;20.05;83.55
12594;BME280;6362;50.208;9.182;2023-07-30T06:30:23;99409.03;;;20.25;79.33
12594;BME280;6362;50.208;9.182;2023-07-30T06:32:49;99405.63;;;20.23;80.05
12594;BME280;6362;50.208;9.182;2023-07-30T06:35:15;99408.94;;;20.26;81.33
12594;BME280;6362;50.208;9.182;2023-07-30T06:37:40;99408.19;;;20.40;80.81
12594;BME280;6362;50.208;9.182;2023-07-30T06:40:06;99406.56;;;20.38;80.48
12594;BME280;6362;50.208;9.182;2023-07-30T06:42:32;99414.16;;;20.44;80.11
12594;BME280;6362;50.208;9.182;2023-07-30T06:44:58;99421.06;;;20.62;80.12
12594;BME280;6362;50.208;9.182;2023-07-30T06:47:24;99422.91;;;20.76;79.64
12594;BME280;6362;50.208;9.182;2023-07-30T06:49:49;99415.50;;;20.67;79.39
12594;BME280;6362;50.208;9.182;2023-07-30T06:52:14;99426.25;;;20.64;79.00
12594;BME280;6362;50.208;9.182;2023-07-30T06:54:40;99427.94;;;20.65;79.23
12594;BME280;6362;50.208;9.182;2023-07-30T06:57:05;99430.44;;;20.68;78.09
12594;BME280;6362;50.208;9.182;2023-07-30T06:59:31;99432.22;;;20.67;76.77
12594;BME280;6362;50.208;9.182;2023-07-30T07:01:56;99433.41;;;20.62;77.90
12594;BME280;6362;50.208;9.182;2023-07-30T07:04:21;99426.34;;;20.62;77.98
12594;BME280;6362;50.208;9.182;2023-07-30T07:06:47;99434.44;;;20.59;77.52
12594;BME280;6362;50.208;9.182;2023-07-30T07:09:12;99436.16;;;20.60;77.44
12594;BME280;6362;50.208;9.182;2023-07-30T07:11:38;99441.59;;;20.57;75.82
12594;BME280;6362;50.208;9.182;2023-07-30T07:14:04;99438.81;;;20.60;73.90
12594;BME280;6362;50.208;9.182;2023-07-30T07:16:29;99446.19;;;20.53;75.22
12594;BME280;6362;50.208;9.182;2023-07-30T07:18:55;99439.81;;;20.58;76.39
12594;BME280;6362;50.208;9.182;2023-07-30T07:21:20;99437.00;;;20.61;76.43
12594;BME280;6362;50.208;9.182;2023-07-30T07:23:45;99440.84;;;20.55;76.42
12594;BME280;6362;50.208;9.182;2023-07-30T07:26:11;99444.41;;;20.54;77.25
12594;BME280;6362;50.208;9.182;2023-07-30T07:28:36;99435.13;;;20.63;76.97
12594;BME280;6362;50.208;9.182;2023-07-30T07:31:02;99438.13;;;20.56;75.30
12594;BME280;6362;50.208;9.182;2023-07-30T07:33:27;99440.81;;;20.71;76.35
12594;BME280;6362;50.208;9.182;2023-07-30T07:36:03;99448.97;;;20.82;76.72
12594;BME280;6362;50.208;9.182;2023-07-30T07:38:28;99444.28;;;20.87;75.32
12594;BME280;6362;50.208;9.182;2023-07-30T07:40:53;99449.03;;;20.96;74.99
12594;BME280;6362;50.208;9.182;2023-07-30T07:43:19;99452.66;;;21.09;74.98
12594;BME280;6362;50.208;9.182;2023-07-30T07:45:44;99448.53;;;21.20;73.71
12594;BME280;6362;50.208;9.182;2023-07-30T07:48:10;99461.69;;;21.21;71.97
12594;BME280;6362;50.208;9.182;2023-07-30T07:50:35;99455.72;;;21.18;72.79
12594;BME280;6362;50.208;9.182;2023-07-30T07:53:00;99458.38;;;21.18;73.15
12594;BME280;6362;50.208;9.182;2023-07-30T07:55:26;99450.53;;;21.16;75.14
12594;BME280;6362;50.208;9.182;2023-07-30T07:57:51;99457.06;;;21.25;75.63
12594;BME280;6362;50.208;9.182;2023-07-30T08:00:17;99464.41;;;21.35;73.07
12594;BME280;6362;50.208;9.182;2023-07-30T08:02:43;99466.66;;;21.42;71.66
12594;BME280;6362;50.208;9.182;2023-07-30T08:05:08;99469.41;;;21.40;72.66
12594;BME280;6362;50.208;9.182;2023-07-30T08:07:34;99466.78;;;21.24;73.26
12594;BME280;6362;50.208;9.182;2023-07-30T08:09:59;99469.25;;;20.97;73.18
12594;BME280;6362;50.208;9.182;2023-07-30T08:12:25;99471.50;;;20.89;73.96
12594;BME280;6362;50.208;9.182;2023-07-30T08:14:50;99472.25;;;20.75;75.82
12594;BME280;6362;50.208;9.182;2023-07-30T08:17:16;99464.19;;;20.63;77.08
12594;BME280;6362;50.208;9.182;2023-07-30T08:19:42;99460.69;;;20.62;77.31
12594;BME280;6362;50.208;9.182;2023-07-30T08:22:07;99467.75;;;20.77;76.87
12594;BME280;6362;50.208;9.182;2023-07-30T08:24:33;99469.38;;;20.80;76.74
12594;BME280;6362;50.208;9.182;2023-07-30T08:26:58;99466.03;;;20.76;76.03
12594;BME280;6362;50.208;9.182;2023-07-30T08:29:24;99473.16;;;20.60;77.40
12594;BME280;6362;50.208;9.182;2023-07-30T08:31:49;99471.34;;;20.61;79.69
12594;BME280;6362;50.208;9.182;2023-07-30T08:34:14;99467.31;;;20.38;82.13
12594;BME280;6362;50.208;9.182;2023-07-30T08:36:40;99465.00;;;20.31;84.19
12594;BME280;6362;50.208;9.182;2023-07-30T08:39:05;99425.72;;;20.25;84.43
12594;BME280;6362;50.208;9.182;2023-07-30T08:41:31;99394.56;;;20.16;86.30
12594;BME280;6362;50.208;9.182;2023-07-30T08:43:57;99427.78;;;20.04;82.30
12594;BME280;6362;50.208;9.182;2023-07-30T08:46:23;99446.75;;;19.95;81.92
12594;BME280;6362;50.208;9.182;2023-07-30T08:48:48;99439.75;;;19.94;80.38
12594;BME280;6362;50.208;9.182;2023-07-30T08:51:14;99439.66;;;19.96;82.88
12594;BME280;6362;50.208;9.182;2023-07-30T08:53:41;99427.59;;;20.08;86.13
12594;BME280;6362;50.208;9.182;2023-07-30T08:56:08;99430.25;;;20.23;89.44
12594;BME280;6362;50.208;9.182;2023-07-30T08:58:34;99434.44;;;20.27;86.10
12594;BME280;6362;50.208;9.182;2023-07-30T09:01:01;99440.47;;;20.45;86.89
12594;BME280;6362;50.208;9.182;2023-07-30T09:03:35;99434.44;;;20.59;84.34
12594;BME280;6362;50.208;9.182;2023-07-30T09:06:03;99439.69;;;20.75;85.04
12594;BME280;6362;50.208;9.182;2023-07-30T09:08:28;99433.78;;;20.86;84.69
12594;BME280;6362;50.208;9.182;2023-07-30T09:10:55;99433.63;;;20.89;79.07
12594;BME280;6362;50.208;9.182;2023-07-30T09:13:21;99424.66;;;21.21;77.38
12594;BME280;6362;50.208;9.182;2023-07-30T09:15:48;99430.31;;;21.59;80.22
12594;BME280;6362;50.208;9.182;2023-07-30T09:18:17;99425.50;;;21.95;72.53
12594;BME280;6362;50.208;9.182;2023-07-30T09:20:43;99426.72;;;22.18;72.74
12594;BME280;6362;50.208;9.182;2023-07-30T09:23:10;99437.59;;;22.27;72.00
12594;BME280;6362;50.208;9.182;2023-07-30T09:25:36;99421.63;;;22.56;71.20
12594;BME280;6362;50.208;9.182;2023-07-30T09:28:02;99432.53;;;22.78;70.31
12594;BME280;6362;50.208;9.182;2023-07-30T09:30:27;99430.22;;;22.59;68.11
12594;BME280;6362;50.208;9.182;2023-07-30T09:32:54;99435.88;;;22.40;69.49
12594;BME280;6362;50.208;9.182;2023-07-30T09:35:21;99443.25;;;22.35;70.45
12594;BME280;6362;50.208;9.182;2023-07-30T09:37:47;99433.22;;;22.40;71.46
12594;BME280;6362;50.208;9.182;2023-07-30T09:40:14;99429.22;;;22.48;72.72
12594;BME280;6362;50.208;9.182;2023-07-30T09:42:46;99432.88;;;22.32;70.01
12594;BME280;6362;50.208;9.182;2023-07-30T09:45:18;99431.47;;;22.27;65.59
12594;BME280;6362;50.208;9.182;2023-07-30T09:47:51;99434.22;;;22.11;65.40
12594;BME280;6362;50.208;9.182;2023-07-30T09:50:17;99436.28;;;22.20;63.58
12594;BME280;6362;50.208;9.182;2023-07-30T09:52:43;99429.81;;;22.38;62.81
12594;BME280;6362;50.208;9.182;2023-07-30T09:55:09;99427.34;;;22.35;62.51
12594;BME280;6362;50.208;9.182;2023-07-30T09:57:35;99421.47;;;22.45;62.01
12594;BME280;6362;50.208;9.182;2023-07-30T10:00:02;99417.03;;;22.31;61.22
12594;BME280;6362;50.208;9.182;2023-07-30T10:02:29;99416.34;;;22.42;63.25
12594;BME280;6362;50.208;9.182;2023-07-30T10:04:59;99419.63;;;22.32;62.85
12594;BME280;6362;50.208;9.182;2023-07-30T10:07:27;99407.13;;;22.34;63.14
12594;BME280;6362;50.208;9.182;2023-07-30T10:09:56;99417.00;;;22.18;63.46
12594;BME280;6362;50.208;9.182;2023-07-30T10:12:27;99403.41;;;22.10;63.37
12594;BME280;6362;50.208;9.182;2023-07-30T10:14:54;99404.03;;;21.85;64.96
12594;BME280;6362;50.208;9.182;2023-07-30T10:17:19;99387.97;;;21.88;65.57
12594;BME280;6362;50.208;9.182;2023-07-30T10:19:49;99400.94;;;21.78;65.21
12594;BME280;6362;50.208;9.182;2023-07-30T10:25:02;99435.03;;;21.24;70.20
12594;BME280;6362;50.208;9.182;2023-07-30T10:27:37;99515.63;;;19.56;80.67
12594;BME280;6362;50.208;9.182;2023-07-30T10:30:10;99488.88;;;18.93;83.14
12594;BME280;6362;50.208;9.182;2023-07-30T10:35:40;99502.00;;;18.00;86.77
12594;BME280;6362;50.208;9.182;2023-07-30T10:38:19;99514.00;;;17.66;91.11
12594;BME280;6362;50.208;9.182;2023-07-30T10:41:10;99535.63;;;17.31;96.83
12594;BME280;6362;50.208;9.182;2023-07-30T10:43:48;99532.06;;;17.11;97.14
12594;BME280;6362;50.208;9.182;2023-07-30T10:46:18;99546.34;;;17.04;98.06
12594;BME280;6362;50.208;9.182;2023-07-30T10:48:46;99577.94;;;17.03;98.64
12594;BME280;6362;50.208;9.182;2023-07-30T10:51:14;99589.28;;;17.05;98.91
12594;BME280;6362;50.208;9.182;2023-07-30T10:53:47;99579.13;;;16.96;98.70
12594;BME280;6362;50.208;9.182;2023-07-30T10:56:17;99577.28;;;17.20;100.00
12594;BME280;6362;50.208;9.182;2023-07-30T10:58:43;99576.84;;;17.30;98.00
12594;BME280;6362;50.208;9.182;2023-07-30T11:01:13;99585.88;;;17.45;98.31
12594;BME280;6362;50.208;9.182;2023-07-30T11:03:39;99594.34;;;17.74;99.97
12594;BME280;6362;50.208;9.182;2023-07-30T11:06:04;99597.47;;;17.83;93.97
12594;BME280;6362;50.208;9.182;2023-07-30T11:08:37;99598.38;;;18.03;96.91
12594;BME280;6362;50.208;9.182;2023-07-30T11:11:04;99592.44;;;17.98;96.22
12594;BME280;6362;50.208;9.182;2023-07-30T11:13:39;99600.53;;;17.93;95.02
12594;BME280;6362;50.208;9.182;2023-07-30T11:16:05;99592.41;;;17.79;93.30
12594;BME280;6362;50.208;9.182;2023-07-30T11:18:32;99612.06;;;17.90;94.97
12594;BME280;6362;50.208;9.182;2023-07-30T11:23:30;99634.34;;;17.82;92.46
12594;BME280;6362;50.208;9.182;2023-07-30T11:25:55;99627.09;;;17.87;94.47
12594;BME280;6362;50.208;9.182;2023-07-30T11:28:30;99631.06;;;17.77;93.34
12594;BME280;6362;50.208;9.182;2023-07-30T11:30:58;99631.06;;;17.77;92.63
12594;BME280;6362;50.208;9.182;2023-07-30T11:33:24;99640.47;;;17.82;97.10
12594;BME280;6362;50.208;9.182;2023-07-30T11:35:50;99638.09;;;17.97;95.37
12594;BME280;6362;50.208;9.182;2023-07-30T11:38:16;99635.94;;;18.27;97.56
12594;BME280;6362;50.208;9.182;2023-07-30T11:40:45;99627.25;;;18.64;97.73
12594;BME280;6362;50.208;9.182;2023-07-30T11:43:11;99627.66;;;18.94;95.60
12594;BME280;6362;50.208;9.182;2023-07-30T11:45:37;99630.34;;;19.11;93.98
12594;BME280;6362;50.208;9.182;2023-07-30T11:48:10;99628.75;;;19.26;91.48
12594;BME280;6362;50.208;9.182;2023-07-30T11:50:51;99621.84;;;19.23;95.35
12594;BME280;6362;50.208;9.182;2023-07-30T11:53:18;99626.97;;;19.26;90.94
12594;BME280;6362;50.208;9.182;2023-07-30T11:55:44;99627.63;;;19.13;87.86
12594;BME280;6362;50.208;9.182;2023-07-30T11:58:11;99629.00;;;19.21;87.56
12594;BME280;6362;50.208;9.182;2023-07-30T12:00:40;99639.56;;;19.39;88.60
12594;BME280;6362;50.208;9.182;2023-07-30T12:03:10;99630.09;;;19.71;93.56
12594;BME280;6362;50.208;9.182;2023-07-30T12:05:38;99631.19;;;20.19;91.51
12594;BME280;6362;50.208;9.182;2023-07-30T12:08:05;99624.47;;;20.79;87.93
12594;BME280;6362;50.208;9.182;2023-07-30T12:10:43;99619.69;;;21.18;87.66
12594;BME280;6362;50.208;9.182;2023-07-30T12:13:15;99617.66;;;21.23;84.32
12594;BME280;6362;50.208;9.182;2023-07-30T12:15:43;99620.28;;;21.07;80.96
12594;BME280;6362;50.208;9.182;2023-07-30T12:18:09;99631.56;;;20.95;78.10
12594;BME280;6362;50.208;9.182;2023-07-30T12:20:34;99631.69;;;20.60;76.85
12594;BME280;6362;50.208;9.182;2023-07-30T12:23:01;99629.97;;;20.42;73.24
12594;BME280;6362;50.208;9.182;2023-07-30T12:25:26;99630.00;;;20.24;74.25
12594;BME280;6362;50.208;9.182;2023-07-30T12:27:52;99631.56;;;20.28;79.71
12594;BME280;6362;50.208;9.182;2023-07-30T12:30:17;99633.50;;;20.25;75.80
12594;BME280;6362;50.208;9.182;2023-07-30T12:32:43;99633.13;;;20.50;73.10
12594;BME280;6362;50.208;9.182;2023-07-30T12:35:08;99648.94;;;20.83;70.38
12594;BME280;6362;50.208;9.182;2023-07-30T12:37:34;99636.47;;;20.69;63.04
12594;BME280;6362;50.208;9.182;2023-07-30T12:40:00;99639.59;;;20.43;65.77
12594;BME280;6362;50.208;9.182;2023-07-30T12:42:26;99638.72;;;19.92;66.15
12594;BME280;6362;50.208;9.182;2023-07-30T12:44:51;99644.59;;;19.62;68.38
12594;BME280;6362;50.208;9.182;2023-07-30T12:47:17;99642.97;;;19.41;68.00
12594;BME280;6362;50.208;9.182;2023-07-30T12:49:42;99648.13;;;19.44;70.32
12594;BME280;6362;50.208;9.182;2023-07-30T12:52:07;99664.81;;;19.44;73.34
12594;BME280;6362;50.208;9.182;2023-07-30T12:54:33;99666.13;;;19.17;65.98
12594;BME280;6362;50.208;9.182;2023-07-30T12:56:58;99672.38;;;19.14;67.89
12594;BME280;6362;50.208;9.182;2023-07-30T12:59:24;99665.81;;;19.04;67.13
12594;BME280;6362;50.208;9.182;2023-07-30T13:01:49;99665.69;;;19.07;66.41
12594;BME280;6362;50.208;9.182;2023-07-30T13:04:15;99667.25;;;19.11;69.88
12594;BME280;6362;50.208;9.182;2023-07-30T13:06:40;99673.22;;;19.15;67.53
12594;BME280;6362;50.208;9.182;2023-07-30T13:09:05;99676.56;;;19.18;68.01
12594;BME280;6362;50.208;9.182;2023-07-30T13:11:31;99672.72;;;19.25;69.47